createdAt,value
2023-04-25T00:02:11.121Z,99.90
2023-04-25T00:04:39.119Z,99.90
2023-04-25T00:07:06.421Z,99.90
2023-04-25T00:09:33.181Z,99.90
2023-04-25T00:11:59.860Z,99.90
2023-04-25T00:14:26.676Z,99.90
2023-04-25T00:16:53.339Z,99.90
2023-04-25T00:19:20.079Z,99.90
2023-04-25T00:21:47.358Z,99.90
2023-04-25T00:24:14.164Z,99.90
2023-04-25T00:26:40.996Z,99.90
2023-04-25T00:29:07.825Z,99.90
2023-04-25T00:31:34.661Z,99.90
2023-04-25T00:34:01.420Z,99.90
2023-04-25T00:36:28.619Z,99.90
2023-04-25T00:38:58.505Z,99.90
2023-04-25T00:41:26.906Z,99.90
2023-04-25T00:43:54.844Z,99.90
2023-04-25T00:46:21.527Z,99.90
2023-04-25T00:48:48.280Z,99.90
2023-04-25T00:51:17.149Z,99.90
2023-04-25T00:53:45.970Z,99.90
2023-04-25T00:56:13.212Z,99.90
2023-04-25T00:58:41.275Z,99.90
2023-04-25T01:01:08.258Z,99.90
2023-04-25T01:03:37.134Z,99.90
2023-04-25T01:06:04.105Z,99.90
2023-04-25T01:08:31.310Z,99.90
2023-04-25T01:10:58.127Z,99.90
2023-04-25T01:13:24.925Z,99.90
2023-04-25T01:15:51.803Z,99.90
2023-04-25T01:18:19.591Z,99.90
2023-04-25T01:20:46.874Z,99.90
2023-04-25T01:23:14.430Z,99.90
2023-04-25T01:25:41.332Z,99.90
2023-04-25T01:28:08.793Z,99.90
2023-04-25T01:30:35.903Z,99.90
2023-04-25T01:33:05.539Z,99.90
2023-04-25T01:35:32.633Z,99.90
2023-04-25T01:38:00.420Z,99.90
2023-04-25T01:40:28.217Z,99.90
2023-04-25T01:42:55.113Z,99.90
2023-04-25T01:45:22.169Z,99.90
2023-04-25T01:47:50.600Z,99.90
2023-04-25T01:50:19.360Z,99.90
2023-04-25T01:52:46.408Z,99.90
2023-04-25T01:55:13.678Z,99.90
2023-04-25T01:57:49.618Z,99.90
2023-04-25T02:00:17.165Z,99.90
2023-04-25T02:02:43.930Z,99.90
2023-04-25T02:05:21.789Z,99.90
2023-04-25T02:07:48.845Z,99.90
2023-04-25T02:10:15.987Z,99.90
2023-04-25T02:13:03.425Z,99.90
2023-04-25T02:15:42.197Z,99.90
2023-04-25T02:18:21.672Z,99.90
2023-04-25T02:20:48.432Z,99.90
2023-04-25T02:23:16.426Z,99.90
2023-04-25T02:25:43.237Z,99.90
2023-04-25T02:28:10.051Z,99.90
2023-04-25T02:30:37.220Z,99.90
2023-04-25T02:33:05.840Z,99.90
2023-04-25T02:35:32.586Z,99.90
2023-04-25T02:37:59.311Z,99.90
2023-04-25T02:40:26.084Z,99.90
2023-04-25T02:42:54.652Z,99.90
2023-04-25T02:45:21.504Z,99.90
2023-04-25T02:47:48.221Z,99.90
2023-04-25T02:50:14.916Z,99.90
2023-04-25T02:52:41.649Z,99.90
2023-04-25T02:55:14.467Z,99.90
2023-04-25T02:57:41.505Z,99.90
2023-04-25T03:00:12.754Z,99.90
2023-04-25T03:02:39.596Z,99.90
2023-04-25T03:05:06.910Z,99.90
2023-04-25T03:07:33.866Z,99.90
2023-04-25T03:10:00.676Z,99.90
2023-04-25T03:12:28.875Z,99.90
2023-04-25T03:14:55.637Z,99.90
2023-04-25T03:17:22.377Z,99.90
2023-04-25T03:19:50.288Z,99.90
2023-04-25T03:22:17.290Z,99.90
2023-04-25T03:24:43.980Z,99.90
2023-04-25T03:27:10.952Z,99.90
2023-04-25T03:29:37.735Z,99.90
2023-04-25T03:32:05.615Z,99.90
2023-04-25T03:34:32.497Z,99.90
2023-04-25T03:36:59.198Z,99.90
2023-04-25T03:39:26.417Z,99.90
2023-04-25T03:41:55.127Z,99.90
2023-04-25T03:44:22.145Z,99.90
2023-04-25T03:46:48.816Z,99.90
2023-04-25T03:49:17.853Z,99.90
2023-04-25T03:51:57.572Z,99.90
2023-04-25T03:54:24.517Z,99.90
2023-04-25T03:57:07.137Z,99.90
2023-04-25T03:59:38.024Z,99.90
2023-04-25T04:02:06.001Z,99.90
2023-04-25T04:04:35.548Z,99.90
2023-04-25T04:07:02.845Z,99.90
2023-04-25T04:09:33.829Z,99.90
2023-04-25T04:12:04.441Z,99.90
2023-04-25T04:14:32.593Z,99.90
2023-04-25T04:16:59.314Z,99.90
2023-04-25T04:19:26.787Z,99.90
2023-04-25T04:22:04.982Z,99.90
2023-04-25T04:24:31.978Z,99.90
2023-04-25T04:27:02.748Z,99.90
2023-04-25T04:29:49.915Z,99.90
2023-04-25T04:32:26.524Z,99.90
2023-04-25T04:34:55.878Z,99.90
2023-04-25T04:37:25.165Z,99.90
2023-04-25T04:39:52.914Z,99.90
2023-04-25T04:42:39.208Z,99.90
2023-04-25T04:45:17.278Z,99.90
2023-04-25T04:47:56.458Z,99.90
2023-04-25T04:50:36.605Z,99.90
2023-04-25T04:53:22.346Z,99.90
2023-04-25T04:56:07.468Z,99.90
2023-04-25T04:58:54.539Z,99.90
2023-04-25T05:01:41.568Z,99.90
2023-04-25T05:04:17.175Z,99.90
2023-04-25T05:07:06.646Z,99.90
2023-04-25T05:09:51.862Z,99.90
2023-04-25T05:12:47.807Z,99.90
2023-04-25T05:15:37.893Z,99.90
2023-04-25T05:18:07.565Z,99.90
2023-04-25T05:21:06.489Z,99.90
2023-04-25T05:23:55.471Z,99.90
2023-04-25T05:26:54.411Z,99.90
2023-04-25T05:29:41.427Z,99.90
2023-04-25T05:32:27.347Z,99.90
2023-04-25T05:34:55.084Z,99.90
2023-04-25T05:37:28.010Z,99.90
2023-04-25T05:40:10.627Z,99.90
2023-04-25T05:42:57.618Z,99.90
2023-04-25T05:45:47.698Z,99.90
2023-04-25T05:48:32.866Z,99.90
2023-04-25T05:51:17.415Z,99.90
2023-04-25T05:54:07.392Z,99.90
2023-04-25T05:56:34.871Z,99.90
2023-04-25T05:59:02.140Z,99.90
2023-04-25T06:01:29.079Z,99.90
2023-04-25T06:03:56.465Z,99.90
2023-04-25T06:06:23.710Z,99.90
2023-04-25T06:08:50.404Z,99.90
2023-04-25T06:11:17.448Z,99.90
2023-04-25T06:13:44.228Z,99.90
2023-04-25T06:16:12.441Z,99.90
2023-04-25T06:18:39.564Z,99.90
2023-04-25T06:21:06.533Z,99.90
2023-04-25T06:23:33.617Z,99.90
2023-04-25T06:26:05.620Z,99.90
2023-04-25T06:28:34.768Z,99.90
2023-04-25T06:31:02.046Z,99.90
2023-04-25T06:33:30.844Z,99.90
2023-04-25T06:35:57.900Z,99.90
2023-04-25T06:38:27.417Z,99.90
2023-04-25T06:40:56.940Z,99.90
2023-04-25T06:43:23.769Z,99.90
2023-04-25T06:46:02.709Z,99.90
2023-04-25T06:48:32.206Z,99.90
2023-04-25T06:50:59.805Z,99.90
2023-04-25T06:53:27.069Z,99.90
2023-04-25T06:56:00.417Z,99.90
2023-04-25T06:58:36.141Z,99.90
2023-04-25T07:01:10.215Z,99.90
2023-04-25T07:03:38.794Z,99.90
2023-04-25T07:06:10.435Z,99.90
2023-04-25T07:08:37.413Z,99.90
2023-04-25T07:11:04.500Z,99.90
2023-04-25T07:13:31.407Z,99.90
2023-04-25T07:15:58.989Z,99.90
2023-04-25T07:18:27.894Z,99.90
2023-04-25T07:20:54.939Z,99.90
2023-04-25T07:23:21.884Z,99.90
2023-04-25T07:25:48.885Z,99.90
2023-04-25T07:28:21.276Z,99.90
2023-04-25T07:30:48.344Z,99.90
2023-04-25T07:33:15.692Z,99.90
2023-04-25T07:35:42.509Z,99.90
2023-04-25T07:38:12.025Z,99.90
2023-04-25T07:40:39.721Z,99.90
2023-04-25T07:43:08.989Z,99.90
2023-04-25T07:45:47.139Z,99.90
2023-04-25T07:48:19.975Z,99.90
2023-04-25T07:50:47.885Z,99.90
2023-04-25T07:53:15.646Z,99.90
2023-04-25T07:55:49.482Z,99.90
2023-04-25T07:58:22.111Z,99.90
2023-04-25T08:00:51.634Z,99.90
2023-04-25T08:03:47.189Z,99.90
2023-04-25T08:06:21.163Z,99.90
2023-04-25T08:08:57.403Z,99.90
2023-04-25T08:11:31.065Z,99.90
2023-04-25T08:13:57.963Z,99.90
2023-04-25T08:16:25.346Z,99.90
2023-04-25T08:18:52.966Z,99.90
2023-04-25T08:21:21.301Z,99.90
2023-04-25T08:23:48.292Z,99.90
2023-04-25T08:26:24.006Z,99.90
2023-04-25T08:28:51.441Z,99.90
2023-04-25T08:31:35.265Z,99.90
2023-04-25T08:34:04.044Z,99.90
2023-04-25T08:36:42.213Z,99.90
2023-04-25T08:39:22.068Z,99.90
2023-04-25T08:42:18.811Z,99.90
2023-04-25T08:44:48.885Z,99.30
2023-04-25T08:47:16.973Z,97.40
2023-04-25T08:49:54.230Z,96.70
2023-04-25T08:52:28.826Z,95.20
2023-04-25T08:54:58.046Z,94.40
2023-04-25T08:57:26.081Z,95.20
2023-04-25T08:59:53.194Z,95.30
2023-04-25T09:02:21.917Z,94.20
2023-04-25T09:04:51.256Z,94.30
2023-04-25T09:07:22.018Z,94.20
2023-04-25T09:09:48.991Z,94.40
2023-04-25T09:12:21.755Z,95.90
2023-04-25T09:15:08.085Z,96.90
2023-04-25T09:18:01.085Z,96.30
2023-04-25T09:20:35.307Z,96.60
2023-04-25T09:23:05.112Z,96.00
2023-04-25T09:25:39.938Z,97.10
2023-04-25T09:28:08.356Z,96.90
2023-04-25T09:30:36.678Z,97.40
2023-04-25T09:33:13.556Z,97.20
2023-04-25T09:35:46.113Z,96.30
2023-04-25T09:38:22.248Z,93.70
2023-04-25T09:40:59.212Z,92.30
2023-04-25T09:43:37.763Z,90.20
2023-04-25T09:46:08.920Z,85.70
2023-04-25T09:48:38.741Z,88.30
2023-04-25T09:51:09.772Z,89.70
2023-04-25T09:53:38.524Z,90.10
2023-04-25T09:56:29.912Z,90.70
2023-04-25T09:58:56.753Z,92.10
2023-04-25T10:01:24.146Z,92.70
2023-04-25T10:04:07.556Z,93.20
2023-04-25T10:06:44.148Z,93.90
2023-04-25T10:09:11.888Z,94.20
2023-04-25T10:11:39.390Z,94.30
2023-04-25T10:14:06.895Z,94.80
2023-04-25T10:16:34.215Z,94.30
2023-04-25T10:19:00.961Z,94.50
2023-04-25T10:21:29.004Z,93.90
2023-04-25T10:23:55.764Z,93.50
2023-04-25T10:26:23.009Z,93.10
2023-04-25T10:29:00.042Z,93.50
2023-04-25T10:31:26.949Z,93.60
2023-04-25T10:33:54.153Z,92.90
2023-04-25T10:36:24.640Z,93.70
2023-04-25T10:38:51.959Z,94.20
2023-04-25T10:41:22.259Z,95.60
2023-04-25T10:43:49.949Z,95.80
2023-04-25T10:46:17.944Z,96.40
2023-04-25T10:48:46.621Z,96.60
2023-04-25T10:51:17.411Z,94.70
2023-04-25T10:54:07.391Z,93.60
2023-04-25T10:56:37.272Z,93.80
2023-04-25T10:59:08.203Z,93.00
2023-04-25T11:01:45.477Z,92.70
2023-04-25T11:04:32.321Z,92.00
2023-04-25T11:07:07.120Z,90.00
2023-04-25T11:09:35.211Z,87.00
2023-04-25T11:12:02.039Z,86.90
2023-04-25T11:14:28.819Z,88.70
2023-04-25T11:16:58.193Z,91.10
2023-04-25T11:19:27.151Z,91.30
2023-04-25T11:21:57.670Z,92.00
2023-04-25T11:24:31.923Z,92.50
2023-04-25T11:26:59.453Z,93.10
2023-04-25T11:29:30.284Z,93.70
2023-04-25T11:32:02.016Z,93.10
2023-04-25T11:34:33.977Z,93.20
2023-04-25T11:37:02.750Z,93.50
2023-04-25T11:39:30.183Z,93.00
2023-04-25T11:41:57.176Z,93.00
2023-04-25T11:44:24.359Z,93.30
2023-04-25T11:46:51.051Z,93.00
2023-04-25T11:49:20.518Z,93.30
2023-04-25T11:51:48.606Z,92.60
2023-04-25T11:54:17.552Z,91.60
2023-04-25T11:56:45.009Z,92.20
2023-04-25T11:59:12.696Z,93.00
2023-04-25T12:01:41.017Z,93.10
2023-04-25T12:04:34.750Z,93.40
2023-04-25T12:07:02.668Z,94.10
2023-04-25T12:09:33.327Z,93.70
2023-04-25T12:12:03.881Z,93.80
2023-04-25T12:14:33.381Z,93.70
2023-04-25T12:17:00.931Z,94.20
2023-04-25T12:19:32.659Z,93.30
2023-04-25T12:22:01.058Z,93.70
2023-04-25T12:24:28.790Z,93.60
2023-04-25T12:27:00.245Z,93.80
2023-04-25T12:29:31.783Z,93.80
2023-04-25T12:32:04.850Z,94.20
2023-04-25T12:34:33.219Z,93.80
2023-04-25T12:37:00.118Z,92.80
2023-04-25T12:39:27.177Z,92.00
2023-04-25T12:41:55.247Z,91.50
2023-04-25T12:44:22.289Z,88.00
2023-04-25T12:46:49.424Z,84.40
2023-04-25T12:49:19.131Z,84.50
2023-04-25T12:51:46.320Z,79.60
2023-04-25T12:54:13.126Z,76.90
2023-04-25T12:56:39.949Z,74.00
2023-04-25T12:59:07.075Z,73.10
2023-04-25T13:01:35.772Z,74.40
2023-04-25T13:04:03.627Z,77.00
2023-04-25T13:06:33.847Z,78.60
2023-04-25T13:09:00.644Z,79.70
2023-04-25T13:11:27.753Z,81.80
2023-04-25T13:13:54.999Z,84.80
2023-04-25T13:16:25.697Z,85.20
2023-04-25T13:18:52.942Z,86.70
2023-04-25T13:21:20.464Z,86.30
2023-04-25T13:23:48.556Z,85.90
2023-04-25T13:26:16.895Z,87.30
2023-04-25T13:28:44.924Z,88.70
2023-04-25T13:31:13.039Z,88.00
2023-04-25T13:33:41.242Z,85.40
2023-04-25T13:36:08.842Z,86.10
2023-04-25T13:38:36.762Z,86.70
2023-04-25T13:41:04.299Z,85.30
2023-04-25T13:43:33.527Z,85.70
2023-04-25T13:46:01.296Z,85.30
2023-04-25T13:48:29.043Z,82.30
2023-04-25T13:51:00.948Z,82.00
2023-04-25T13:53:29.332Z,82.80
2023-04-25T13:55:59.135Z,83.10
2023-04-25T13:58:27.701Z,80.90
2023-04-25T14:00:55.315Z,78.70
2023-04-25T14:03:22.821Z,76.50
2023-04-25T14:05:50.657Z,78.10
2023-04-25T14:08:18.404Z,79.20
2023-04-25T14:10:46.016Z,81.30
2023-04-25T14:13:13.313Z,82.10
2023-04-25T14:15:40.751Z,81.40
2023-04-25T14:18:10.255Z,82.10
2023-04-25T14:20:36.973Z,82.10
2023-04-25T14:23:03.938Z,80.40
2023-04-25T14:25:30.732Z,80.60
2023-04-25T14:27:57.448Z,80.60
2023-04-25T14:30:24.093Z,80.50
2023-04-25T14:32:51.152Z,81.50
2023-04-25T14:35:18.028Z,81.70
2023-04-25T14:37:45.104Z,82.00
2023-04-25T14:40:14.125Z,82.50
2023-04-25T14:42:41.198Z,83.60
2023-04-25T14:45:09.444Z,83.40
2023-04-25T14:47:37.172Z,82.40
2023-04-25T14:50:05.548Z,83.90
2023-04-25T14:52:32.366Z,84.40
2023-04-25T14:55:01.165Z,85.00
2023-04-25T14:57:27.910Z,84.80
2023-04-25T14:59:54.609Z,84.30
2023-04-25T15:02:21.418Z,83.30
2023-04-25T15:04:48.662Z,80.90
2023-04-25T15:07:17.756Z,77.70
2023-04-25T15:09:45.187Z,77.40
2023-04-25T15:12:12.159Z,77.70
2023-04-25T15:14:39.162Z,78.20
2023-04-25T15:17:05.980Z,79.80
2023-04-25T15:19:32.847Z,81.60
2023-04-25T15:22:02.442Z,82.60
2023-04-25T15:24:29.797Z,83.70
2023-04-25T15:26:56.549Z,83.90
2023-04-25T15:29:23.306Z,84.90
2023-04-25T15:31:50.124Z,85.80
2023-04-25T15:34:16.828Z,87.50
2023-04-25T15:36:43.585Z,86.00
2023-04-25T15:39:10.852Z,86.40
2023-04-25T15:41:37.588Z,86.80
2023-04-25T15:44:04.336Z,88.00
2023-04-25T15:46:31.412Z,87.70
2023-04-25T15:48:58.266Z,87.50
2023-04-25T15:51:25.045Z,87.70
2023-04-25T15:53:52.111Z,86.40
2023-04-25T15:56:19.061Z,85.80
2023-04-25T15:58:45.686Z,84.00
2023-04-25T16:01:12.478Z,85.00
2023-04-25T16:03:39.482Z,81.50
2023-04-25T16:06:06.384Z,77.60
2023-04-25T16:08:35.737Z,74.40
2023-04-25T16:11:03.140Z,73.40
2023-04-25T16:13:30.098Z,72.80
2023-04-25T16:15:57.036Z,71.10
2023-04-25T16:18:23.960Z,70.00
2023-04-25T16:20:50.878Z,68.60
2023-04-25T16:23:18.193Z,66.40
2023-04-25T16:25:45.116Z,65.60
2023-04-25T16:28:11.950Z,66.30
2023-04-25T16:30:38.640Z,67.40
2023-04-25T16:33:05.398Z,68.50
2023-04-25T16:35:32.525Z,69.20
2023-04-25T16:37:59.438Z,69.50
2023-04-25T16:40:26.757Z,69.00
2023-04-25T16:42:53.386Z,69.60
2023-04-25T16:45:20.688Z,71.40
2023-04-25T16:47:47.383Z,72.90
2023-04-25T16:50:14.696Z,74.20
2023-04-25T16:52:42.466Z,75.70
2023-04-25T16:55:10.899Z,76.00
2023-04-25T16:57:37.834Z,75.90
2023-04-25T17:00:05.686Z,76.70
2023-04-25T17:02:32.747Z,77.20
2023-04-25T17:04:59.466Z,77.80
2023-04-25T17:07:26.704Z,78.30
2023-04-25T17:09:53.405Z,78.90
2023-04-25T17:12:21.422Z,79.80
2023-04-25T17:14:49.013Z,79.70
2023-04-25T17:17:16.560Z,80.90
2023-04-25T17:19:43.259Z,81.00
2023-04-25T17:22:09.942Z,82.30
2023-04-25T17:24:36.689Z,82.40
2023-04-25T17:27:03.659Z,81.20
2023-04-25T17:29:30.456Z,81.40
2023-04-25T17:31:57.814Z,82.30
2023-04-25T17:34:24.552Z,83.60
2023-04-25T17:36:51.356Z,82.70
2023-04-25T17:39:18.095Z,83.80
2023-04-25T17:41:45.048Z,83.80
2023-04-25T17:44:12.037Z,85.10
2023-04-25T17:46:38.924Z,85.00
2023-04-25T17:49:06.196Z,84.80
2023-04-25T17:51:32.976Z,85.10
2023-04-25T17:53:59.667Z,86.70
2023-04-25T17:56:27.772Z,87.50
2023-04-25T17:58:55.109Z,87.90
2023-04-25T18:01:22.205Z,87.90
2023-04-25T18:03:50.251Z,88.20
2023-04-25T18:06:17.995Z,88.80
2023-04-25T18:08:44.962Z,88.90
2023-04-25T18:11:12.067Z,88.90
2023-04-25T18:13:39.366Z,90.10
2023-04-25T18:16:06.534Z,90.10
2023-04-25T18:18:35.678Z,90.70
2023-04-25T18:21:04.953Z,90.70
2023-04-25T18:23:33.838Z,91.10
2023-04-25T18:26:01.099Z,91.10
2023-04-25T18:28:28.281Z,91.20
2023-04-25T18:30:55.226Z,91.50
2023-04-25T18:33:25.213Z,91.70
2023-04-25T18:38:34.962Z,91.90
2023-04-25T18:41:18.385Z,92.40
2023-04-25T18:43:49.673Z,92.30
2023-04-25T18:46:17.621Z,92.50
2023-04-25T18:48:44.484Z,92.90
2023-04-25T18:51:11.234Z,93.10
2023-04-25T18:53:37.975Z,93.50
2023-04-25T18:56:04.828Z,93.60
2023-04-25T18:58:32.453Z,93.90
2023-04-25T19:00:59.616Z,94.50
2023-04-25T19:03:26.835Z,94.60
2023-04-25T19:05:53.909Z,95.00
2023-04-25T19:08:20.784Z,95.40
2023-04-25T19:10:47.565Z,95.80
2023-04-25T19:13:14.334Z,95.60
2023-04-25T19:15:41.126Z,95.40
2023-04-25T19:18:08.292Z,95.80
2023-04-25T19:20:35.061Z,96.10
2023-04-25T19:23:01.790Z,96.50
2023-04-25T19:25:28.479Z,96.40
2023-04-25T19:27:55.512Z,96.40
2023-04-25T19:30:23.114Z,96.20
2023-04-25T19:32:49.993Z,96.80
2023-04-25T19:35:16.736Z,96.70
2023-04-25T19:37:46.761Z,96.60
2023-04-25T19:40:14.566Z,96.50
2023-04-25T19:42:41.777Z,96.20
2023-04-25T19:45:08.670Z,96.00
2023-04-25T19:47:38.346Z,96.40
2023-04-25T19:50:06.181Z,96.90
2023-04-25T19:52:34.440Z,97.00
2023-04-25T19:55:05.144Z,96.40
2023-04-25T19:57:35.041Z,96.70
2023-04-25T20:00:02.359Z,97.00
2023-04-25T20:02:39.212Z,97.00
2023-04-25T20:05:07.987Z,97.20
2023-04-25T20:07:35.212Z,97.10
2023-04-25T20:10:02.153Z,97.20
2023-04-25T20:12:28.892Z,97.90
2023-04-25T20:14:56.645Z,97.70
2023-04-25T20:17:23.602Z,98.20
2023-04-25T20:19:50.364Z,98.30
2023-04-25T20:22:18.619Z,99.10
2023-04-25T20:24:45.644Z,99.10
2023-04-25T20:27:13.314Z,99.10
2023-04-25T20:29:43.250Z,99.00
2023-04-25T20:32:15.000Z,99.30
2023-04-25T20:34:42.255Z,99.40
2023-04-25T20:37:09.281Z,99.60
2023-04-25T20:39:36.456Z,99.90
2023-04-25T20:42:03.715Z,99.90
2023-04-25T20:44:30.846Z,99.90
2023-04-25T20:46:58.008Z,99.90
2023-04-25T20:49:25.113Z,99.90
2023-04-25T20:51:52.555Z,99.90
2023-04-25T20:54:19.358Z,99.90
2023-04-25T20:56:46.158Z,99.90
2023-04-25T20:59:13.172Z,99.90
2023-04-25T21:01:40.201Z,99.90
2023-04-25T21:04:07.481Z,99.90
2023-04-25T21:06:34.953Z,99.90
2023-04-25T21:09:01.757Z,99.90
2023-04-25T21:11:28.588Z,99.90
2023-04-25T21:13:55.394Z,99.90
2023-04-25T21:16:22.409Z,99.90
2023-04-25T21:18:49.233Z,99.90
2023-04-25T21:21:16.171Z,99.90
2023-04-25T21:23:42.890Z,99.90
2023-04-25T21:26:09.608Z,99.90
2023-04-25T21:28:39.124Z,99.90
2023-04-25T21:31:09.307Z,99.90
2023-04-25T21:33:37.234Z,99.90
2023-04-25T21:36:04.332Z,99.90
2023-04-25T21:38:31.150Z,99.90
2023-04-25T21:41:01.053Z,99.90
2023-04-25T21:43:28.880Z,99.90
2023-04-25T21:46:19.071Z,99.90
2023-04-25T21:48:42.576Z,99.90
2023-04-25T21:51:09.368Z,99.90
2023-04-25T21:53:36.760Z,99.90
2023-04-25T21:56:04.321Z,99.90
2023-04-25T21:58:31.198Z,99.90
2023-04-25T22:00:59.409Z,99.90
2023-04-25T22:03:26.631Z,99.90
2023-04-25T22:05:53.945Z,99.90
2023-04-25T22:08:23.912Z,99.90
2023-04-25T22:10:51.144Z,99.90
2023-04-25T22:13:18.524Z,99.90
2023-04-25T22:15:46.072Z,99.90
2023-04-25T22:18:14.507Z,99.90
2023-04-25T22:20:42.209Z,99.90
2023-04-25T22:23:09.603Z,99.90
2023-04-25T22:25:36.509Z,99.90
2023-04-25T22:28:03.278Z,99.90
2023-04-25T22:30:31.228Z,99.90
2023-04-25T22:32:58.680Z,99.90
2023-04-25T22:35:25.552Z,99.90
2023-04-25T22:37:52.557Z,99.90
2023-04-25T22:40:19.931Z,99.90
2023-04-25T22:42:47.496Z,99.90
2023-04-25T22:45:14.806Z,99.90
2023-04-25T22:47:42.259Z,99.90
2023-04-25T22:50:13.610Z,99.90
2023-04-25T22:52:44.157Z,99.90
2023-04-25T22:55:12.456Z,99.90
2023-04-25T22:57:39.869Z,99.90
2023-04-25T23:00:15.757Z,99.90
2023-04-25T23:02:46.762Z,99.90
2023-04-25T23:05:14.604Z,99.90
2023-04-25T23:07:42.329Z,99.90
2023-04-25T23:10:09.515Z,99.90
2023-04-25T23:12:36.878Z,99.90
2023-04-25T23:15:06.384Z,99.90
2023-04-25T23:17:33.451Z,99.90
2023-04-25T23:20:06.350Z,99.90
2023-04-25T23:22:34.246Z,99.90
2023-04-25T23:25:05.363Z,99.90
2023-04-25T23:27:32.591Z,99.90
2023-04-25T23:29:59.550Z,99.90
2023-04-25T23:32:26.902Z,99.90
2023-04-25T23:34:53.725Z,99.90
2023-04-25T23:37:20.426Z,99.90
2023-04-25T23:39:48.048Z,99.90
2023-04-25T23:42:14.919Z,99.90
2023-04-25T23:44:42.617Z,99.90
2023-04-25T23:47:09.584Z,99.90
2023-04-25T23:49:36.677Z,99.90
2023-04-25T23:52:05.084Z,99.90
2023-04-25T23:54:31.866Z,99.90
2023-04-25T23:56:58.637Z,99.90
2023-04-25T23:59:25.383Z,99.90
